createdAt,value
2023-04-27T00:03:12.005Z,52.36
2023-04-27T00:08:13.558Z,52.31
2023-04-27T00:13:14.899Z,52.33
2023-04-27T00:18:16.304Z,52.83
2023-04-27T00:23:17.657Z,52.65
2023-04-27T00:28:19.012Z,52.70
2023-04-27T00:33:21.269Z,53.22
2023-04-27T00:38:22.590Z,52.95
2023-04-27T00:43:23.931Z,53.39
2023-04-27T00:48:25.924Z,53.01
2023-04-27T00:53:27.290Z,53.66
2023-04-27T00:58:28.812Z,53.10
2023-04-27T01:03:30.747Z,53.63
2023-04-27T01:08:32.229Z,54.25
2023-04-27T01:13:33.564Z,54.40
2023-04-27T01:18:35.025Z,54.35
2023-04-27T01:23:36.557Z,54.64
2023-04-27T01:28:37.916Z,54.71
2023-04-27T01:33:39.804Z,54.79
2023-04-27T01:38:41.555Z,54.92
2023-04-27T01:43:43.682Z,55.09
2023-04-27T01:48:45.042Z,55.32
2023-04-27T01:53:46.383Z,56.24
2023-04-27T01:58:47.702Z,55.20
2023-04-27T02:03:52.207Z,54.83
2023-04-27T02:08:53.714Z,54.75
2023-04-27T02:13:55.242Z,54.91
2023-04-27T02:18:56.602Z,55.64
2023-04-27T02:23:58.008Z,55.09
2023-04-27T02:28:59.496Z,55.24
2023-04-27T02:34:01.386Z,55.74
2023-04-27T02:39:03.092Z,55.36
2023-04-27T02:44:04.629Z,55.52
2023-04-27T02:49:06.000Z,55.81
2023-04-27T02:54:07.405Z,55.61
2023-04-27T02:59:08.729Z,55.52
2023-04-27T03:04:10.779Z,56.04
2023-04-27T03:09:13.186Z,55.95
2023-04-27T03:14:14.702Z,56.27
2023-04-27T03:19:16.254Z,56.03
2023-04-27T03:24:17.728Z,56.18
2023-04-27T03:29:19.221Z,56.15
2023-04-27T03:34:21.758Z,55.79
2023-04-27T03:39:23.135Z,55.14
2023-04-27T03:44:24.497Z,55.49
2023-04-27T03:49:26.227Z,55.91
2023-04-27T03:54:27.569Z,56.04
2023-04-27T03:59:30.122Z,56.26
2023-04-27T04:04:31.809Z,56.38
2023-04-27T04:09:33.318Z,56.23
2023-04-27T04:14:34.650Z,56.36
2023-04-27T04:19:36.179Z,56.19
2023-04-27T04:24:37.588Z,56.50
2023-04-27T04:29:39.328Z,56.23
2023-04-27T04:34:40.717Z,56.34
2023-04-27T04:39:42.053Z,56.60
2023-04-27T04:44:43.452Z,56.43
2023-04-27T04:49:44.817Z,56.56
2023-04-27T04:54:46.381Z,56.86
2023-04-27T04:59:47.754Z,56.99
2023-04-27T05:04:49.596Z,56.37
2023-04-27T05:09:50.978Z,56.23
2023-04-27T05:14:53.086Z,56.33
2023-04-27T05:19:54.415Z,56.60
2023-04-27T05:24:57.109Z,56.60
2023-04-27T05:29:58.441Z,56.68
2023-04-27T05:34:59.801Z,56.14
2023-04-27T05:40:01.289Z,56.09
2023-04-27T05:45:03.835Z,55.96
2023-04-27T05:50:06.151Z,56.01
2023-04-27T05:55:08.209Z,56.03
2023-04-27T06:00:10.961Z,55.52
2023-04-27T06:05:12.406Z,55.21
2023-04-27T06:10:14.571Z,55.08
2023-04-27T06:15:17.003Z,54.99
2023-04-27T06:20:18.530Z,54.74
2023-04-27T06:25:20.019Z,54.44
2023-04-27T06:30:21.525Z,53.79
2023-04-27T06:35:22.925Z,53.09
2023-04-27T06:40:25.826Z,52.71
2023-04-27T06:45:27.211Z,52.04
2023-04-27T06:50:29.304Z,51.42
2023-04-27T06:55:30.919Z,50.43
2023-04-27T07:00:32.317Z,50.17
2023-04-27T07:05:34.493Z,49.50
2023-04-27T07:10:36.049Z,49.32
2023-04-27T07:15:37.403Z,48.73
2023-04-27T07:20:38.736Z,48.48
2023-04-27T07:25:40.254Z,48.02
2023-04-27T07:30:42.582Z,47.27
2023-04-27T07:35:43.921Z,47.19
2023-04-27T07:40:46.116Z,46.79
2023-04-27T07:45:48.011Z,46.60
2023-04-27T07:50:49.404Z,45.81
2023-04-27T07:55:50.790Z,45.43
2023-04-27T08:00:52.130Z,45.12
2023-04-27T08:05:53.627Z,44.88
2023-04-27T08:10:55.393Z,45.11
2023-04-27T08:15:59.202Z,44.42
2023-04-27T08:21:00.581Z,44.24
2023-04-27T08:26:01.910Z,44.09
2023-04-27T08:31:03.373Z,44.43
2023-04-27T08:36:05.161Z,43.59
2023-04-27T08:41:20.345Z,42.81
2023-04-27T08:46:24.241Z,42.53
2023-04-27T08:51:27.434Z,42.01
2023-04-27T08:56:29.821Z,41.44
2023-04-27T09:01:32.149Z,41.19
2023-04-27T09:06:35.774Z,40.77
2023-04-27T09:11:38.960Z,40.26
2023-04-27T09:16:40.395Z,40.04
2023-04-27T09:21:43.079Z,39.49
2023-04-27T09:26:49.605Z,38.62
2023-04-27T09:31:51.038Z,38.82
2023-04-27T09:36:53.224Z,38.72
2023-04-27T09:41:54.935Z,37.91
2023-04-27T09:46:58.563Z,37.17
2023-04-27T09:51:59.933Z,36.88
2023-04-27T09:57:15.380Z,36.54
2023-04-27T10:02:25.350Z,36.43
2023-04-27T10:07:28.238Z,36.35
2023-04-27T10:12:38.703Z,36.02
2023-04-27T10:17:48.203Z,36.10
2023-04-27T10:22:52.473Z,35.67
2023-04-27T10:28:01.970Z,35.26
2023-04-27T10:33:11.696Z,34.75
2023-04-27T10:38:18.554Z,33.93
2023-04-27T10:43:28.396Z,33.31
2023-04-27T10:48:30.143Z,33.44
2023-04-27T10:53:35.949Z,32.82
2023-04-27T11:03:46.734Z,31.78
2023-04-27T11:08:48.364Z,31.57
2023-04-27T11:13:50.357Z,30.67
2023-04-27T11:18:51.730Z,30.85
2023-04-27T11:23:53.272Z,30.15
2023-04-27T11:29:04.929Z,30.06
2023-04-27T11:34:08.015Z,30.29
2023-04-27T11:39:16.730Z,29.63
2023-04-27T11:44:18.257Z,29.56
2023-04-27T11:49:19.950Z,28.94
2023-04-27T11:54:28.500Z,29.19
2023-04-27T11:59:29.878Z,28.89
2023-04-27T12:04:32.004Z,28.06
2023-04-27T12:09:33.961Z,28.14
2023-04-27T12:14:35.540Z,27.67
2023-04-27T12:19:37.182Z,27.43
2023-04-27T12:24:38.603Z,27.46
2023-04-27T12:29:39.947Z,27.31
2023-04-27T12:34:42.780Z,27.06
2023-04-27T12:39:44.193Z,27.62
2023-04-27T12:44:45.606Z,27.22
2023-04-27T12:49:47.057Z,26.82
2023-04-27T12:54:48.476Z,26.96
2023-04-27T12:59:49.802Z,27.13
2023-04-27T13:04:51.695Z,26.98
2023-04-27T13:09:53.131Z,26.65
2023-04-27T13:14:54.638Z,26.41
2023-04-27T13:19:56.155Z,26.49
2023-04-27T13:24:57.951Z,26.43
2023-04-27T13:29:59.426Z,26.12
2023-04-27T13:35:00.839Z,25.32
2023-04-27T13:40:02.179Z,25.37
2023-04-27T13:45:04.718Z,25.42
2023-04-27T13:50:08.098Z,24.87
2023-04-27T13:55:10.776Z,24.88
2023-04-27T14:00:13.860Z,24.66
2023-04-27T14:05:15.373Z,24.90
2023-04-27T14:10:17.788Z,24.80
2023-04-27T14:15:19.255Z,24.25
2023-04-27T14:20:21.116Z,24.17
2023-04-27T14:25:22.507Z,23.73
2023-04-27T14:30:23.934Z,22.48
2023-04-27T14:35:25.595Z,23.27
2023-04-27T14:40:28.938Z,23.27
2023-04-27T14:45:39.713Z,23.26
2023-04-27T14:50:49.353Z,22.94
2023-04-27T14:55:50.850Z,23.11
2023-04-27T15:00:52.428Z,23.06
2023-04-27T15:05:54.054Z,23.46
2023-04-27T15:10:57.696Z,23.42
2023-04-27T15:16:00.848Z,23.43
2023-04-27T15:21:02.384Z,22.91
2023-04-27T15:26:03.801Z,22.95
2023-04-27T15:31:05.185Z,23.19
2023-04-27T15:36:06.721Z,24.05
2023-04-27T15:41:08.074Z,24.14
2023-04-27T15:46:09.560Z,24.26
2023-04-27T15:51:11.915Z,24.26
2023-04-27T15:56:13.324Z,24.19
2023-04-27T16:01:14.792Z,24.13
2023-04-27T16:06:16.472Z,24.57
2023-04-27T16:11:17.788Z,24.11
2023-04-27T16:16:19.178Z,24.45
2023-04-27T16:21:21.669Z,24.50
2023-04-27T16:26:23.514Z,23.97
2023-04-27T16:31:25.858Z,23.29
2023-04-27T16:36:27.694Z,23.41
2023-04-27T16:41:29.214Z,23.83
2023-04-27T16:46:30.610Z,23.86
2023-04-27T16:51:32.457Z,24.12
2023-04-27T16:56:36.050Z,24.60
2023-04-27T17:01:37.957Z,24.97
2023-04-27T17:06:40.851Z,25.21
2023-04-27T17:11:42.338Z,25.88
2023-04-27T17:16:43.729Z,26.06
2023-04-27T17:21:45.066Z,26.34
2023-04-27T17:26:48.142Z,26.60
2023-04-27T17:31:50.463Z,27.24
2023-04-27T17:36:51.943Z,27.23
2023-04-27T17:41:53.278Z,27.71
2023-04-27T17:46:54.761Z,28.28
2023-04-27T17:51:56.295Z,28.59
2023-04-27T17:56:57.717Z,29.13
2023-04-27T18:01:59.231Z,28.97
2023-04-27T18:07:00.576Z,29.75
2023-04-27T18:12:02.263Z,30.38
2023-04-27T18:17:04.047Z,31.70
2023-04-27T18:22:05.400Z,32.47
2023-04-27T18:27:06.904Z,33.25
2023-04-27T18:32:08.469Z,34.11
2023-04-27T18:37:10.506Z,34.38
2023-04-27T18:42:11.876Z,34.89
2023-04-27T18:47:13.927Z,35.60
2023-04-27T18:52:15.337Z,35.80
2023-04-27T18:57:16.689Z,36.20
2023-04-27T19:02:18.099Z,36.86
2023-04-27T19:07:19.599Z,37.06
2023-04-27T19:12:22.638Z,37.29
2023-04-27T19:17:24.039Z,37.99
2023-04-27T19:22:26.910Z,38.03
2023-04-27T19:27:28.290Z,38.25
2023-04-27T19:32:30.729Z,38.69
2023-04-27T19:37:32.105Z,39.11
2023-04-27T19:42:33.587Z,39.23
2023-04-27T19:47:35.370Z,39.89
2023-04-27T19:52:36.858Z,40.05
2023-04-27T19:57:38.179Z,40.87
2023-04-27T20:02:39.833Z,41.63
2023-04-27T20:07:41.689Z,41.84
2023-04-27T20:12:55.402Z,42.29
2023-04-27T20:17:57.886Z,41.96
2023-04-27T20:22:59.310Z,41.69
2023-04-27T20:28:00.694Z,41.76
2023-04-27T20:33:03.588Z,41.52
2023-04-27T20:38:05.492Z,41.23
2023-04-27T20:43:07.914Z,41.16
2023-04-27T20:48:11.691Z,41.11
2023-04-27T20:53:13.115Z,41.18
2023-04-27T20:58:14.565Z,41.26
2023-04-27T21:03:16.177Z,41.69
2023-04-27T21:08:17.825Z,41.92
2023-04-27T21:13:19.772Z,42.41
2023-04-27T21:18:29.607Z,43.12
2023-04-27T21:23:35.343Z,43.72
2023-04-27T21:28:36.928Z,43.98
2023-04-27T21:33:38.317Z,44.49
2023-04-27T21:38:39.630Z,44.24
2023-04-27T21:43:42.067Z,44.19
2023-04-27T21:48:43.493Z,44.03
2023-04-27T21:53:44.838Z,43.96
2023-04-27T21:58:46.348Z,44.27
2023-04-27T22:03:47.834Z,44.28
2023-04-27T22:08:49.303Z,44.29
2023-04-27T22:13:51.175Z,44.29
2023-04-27T22:18:53.759Z,44.32
2023-04-27T22:23:55.234Z,44.45
2023-04-27T22:28:56.845Z,44.49
2023-04-27T22:33:58.438Z,44.77
2023-04-27T22:39:00.184Z,45.29
2023-04-27T22:44:01.594Z,45.31
2023-04-27T22:49:03.086Z,45.63
2023-04-27T22:54:04.478Z,45.58
2023-04-27T22:59:06.015Z,45.73
2023-04-27T23:04:08.897Z,45.88
2023-04-27T23:09:10.563Z,45.94
2023-04-27T23:14:12.068Z,45.67
2023-04-27T23:19:13.583Z,45.95
2023-04-27T23:24:15.153Z,45.89
2023-04-27T23:29:16.758Z,46.46
2023-04-27T23:34:18.237Z,46.61
2023-04-27T23:39:19.780Z,46.83
2023-04-27T23:44:21.364Z,47.01
2023-04-27T23:49:22.730Z,47.41
2023-04-27T23:54:24.034Z,47.76
2023-04-27T23:59:25.412Z,47.93
